createdAt,value
2022-11-04T00:02:13.890Z,98734.60
2022-11-04T00:04:42.232Z,98733.52
2022-11-04T00:07:30.430Z,98728.19
2022-11-04T00:09:58.941Z,98719.87
2022-11-04T00:12:27.242Z,98717.34
2022-11-04T00:15:15.519Z,98716.77
2022-11-04T00:17:43.814Z,98715.08
2022-11-04T00:20:30.743Z,98708.14
2022-11-04T00:23:17.383Z,98703.88
2022-11-04T00:26:04.502Z,98701.26
2022-11-04T00:28:44.655Z,98697.29
2022-11-04T00:31:31.784Z,98692.31
2022-11-04T00:34:00.104Z,98683.77
2022-11-04T00:36:28.406Z,98681.48
2022-11-04T00:38:56.831Z,98679.61
2022-11-04T00:41:28.428Z,98674.70
2022-11-04T00:44:02.632Z,98670.14
2022-11-04T00:46:33.618Z,98669.67
2022-11-04T00:49:02.043Z,98670.98
2022-11-04T00:51:30.317Z,98671.90
2022-11-04T00:53:59.578Z,98674.33
2022-11-04T00:56:27.902Z,98674.86
2022-11-04T00:58:56.299Z,98674.80
2022-11-04T01:01:24.750Z,98670.48
2022-11-04T01:03:54.485Z,98666.42
2022-11-04T01:06:24.877Z,98659.02
2022-11-04T01:09:02.124Z,98656.39
2022-11-04T01:11:31.403Z,98650.29
2022-11-04T01:14:00.525Z,98640.35
2022-11-04T01:16:29.780Z,98633.20
2022-11-04T01:18:58.963Z,98624.98
2022-11-04T01:21:27.289Z,98623.23
2022-11-04T01:23:55.532Z,98624.11
2022-11-04T01:26:25.733Z,98618.38
2022-11-04T01:28:55.798Z,98611.45
2022-11-04T01:31:26.957Z,98605.63
2022-11-04T01:33:56.097Z,98605.94
2022-11-04T01:36:26.064Z,98601.20
2022-11-04T01:38:57.745Z,98597.85
2022-11-04T01:41:29.570Z,98595.00
2022-11-04T01:44:21.992Z,98593.98
2022-11-04T01:46:54.280Z,98590.00
2022-11-04T01:49:22.960Z,98586.79
2022-11-04T01:51:57.694Z,98583.31
2022-11-04T01:54:26.674Z,98579.48
2022-11-04T01:56:56.289Z,98574.06
2022-11-04T01:59:33.167Z,98573.83
2022-11-04T02:02:02.230Z,98571.39
2022-11-04T02:04:31.867Z,98575.14
2022-11-04T02:07:02.923Z,98569.47
2022-11-04T02:09:32.817Z,98564.65
2022-11-04T02:12:20.381Z,98564.34
2022-11-04T02:14:50.669Z,98562.66
2022-11-04T02:17:18.879Z,98557.46
2022-11-04T02:20:18.869Z,98551.67
2022-11-04T02:22:57.088Z,98544.56
2022-11-04T02:26:06.964Z,98544.27
2022-11-04T02:28:59.841Z,98545.12
2022-11-04T02:31:58.964Z,98544.05
2022-11-04T02:34:51.158Z,98536.80
2022-11-04T02:37:46.444Z,98536.37
2022-11-04T02:40:21.035Z,98538.61
2022-11-04T02:42:59.164Z,98540.95
2022-11-04T02:45:46.957Z,98535.87
2022-11-04T02:48:27.664Z,98531.91
2022-11-04T02:51:11.396Z,98526.11
2022-11-04T02:53:56.966Z,98522.29
2022-11-04T02:56:27.322Z,98523.91
2022-11-04T02:59:01.308Z,98527.07
2022-11-04T03:01:34.711Z,98526.17
2022-11-04T03:04:21.538Z,98520.70
2022-11-04T03:06:54.237Z,98514.98
2022-11-04T03:09:23.791Z,98516.36
2022-11-04T03:11:57.825Z,98519.58
2022-11-04T03:14:36.321Z,98519.60
2022-11-04T03:17:18.444Z,98520.17
2022-11-04T03:20:00.391Z,98516.46
2022-11-04T03:22:36.801Z,98509.47
2022-11-04T03:25:08.651Z,98503.36
2022-11-04T03:27:53.315Z,98499.77
2022-11-04T03:30:23.955Z,98495.05
2022-11-04T03:33:22.131Z,98497.48
2022-11-04T03:35:50.500Z,98498.88
2022-11-04T03:38:18.821Z,98495.02
2022-11-04T03:40:47.096Z,98494.19
2022-11-04T03:43:21.680Z,98483.81
2022-11-04T03:45:51.805Z,98484.16
2022-11-04T03:48:20.381Z,98488.02
2022-11-04T03:50:49.819Z,98489.94
2022-11-04T03:53:23.976Z,98486.36
2022-11-04T03:56:00.562Z,98483.48
2022-11-04T03:58:54.900Z,98476.20
2022-11-04T04:01:48.489Z,98475.48
2022-11-04T04:04:19.986Z,98477.07
2022-11-04T04:06:53.553Z,98477.07
2022-11-04T04:09:29.735Z,98477.09
2022-11-04T04:12:20.823Z,98473.91
2022-11-04T04:14:55.980Z,98474.55
2022-11-04T04:17:31.591Z,98470.98
2022-11-04T04:20:05.244Z,98469.43
2022-11-04T04:22:51.209Z,98470.67
2022-11-04T04:25:40.668Z,98467.39
2022-11-04T04:28:13.053Z,98461.30
2022-11-04T04:30:43.975Z,98455.12
2022-11-04T04:33:18.399Z,98447.40
2022-11-04T04:35:55.508Z,98440.47
2022-11-04T04:38:48.216Z,98440.98
2022-11-04T04:41:47.081Z,98435.52
2022-11-04T04:44:47.576Z,98429.89
2022-11-04T04:47:23.500Z,98425.98
2022-11-04T04:50:00.511Z,98423.97
2022-11-04T04:52:48.097Z,98422.39
2022-11-04T04:55:16.722Z,98417.85
2022-11-04T04:57:45.188Z,98414.03
2022-11-04T05:00:17.784Z,98408.09
2022-11-04T05:02:46.568Z,98404.88
2022-11-04T05:07:48.557Z,98391.23
2022-11-04T05:10:18.156Z,98386.99
2022-11-04T05:13:04.950Z,98386.47
2022-11-04T05:15:34.496Z,98385.69
2022-11-04T05:18:03.712Z,98386.20
2022-11-04T05:20:34.545Z,98386.74
2022-11-04T05:23:03.032Z,98379.92
2022-11-04T05:25:31.394Z,98384.48
2022-11-04T05:28:02.021Z,98386.23
2022-11-04T05:30:30.369Z,98388.78
2022-11-04T05:33:01.801Z,98387.73
2022-11-04T05:35:33.673Z,98375.26
2022-11-04T05:38:01.991Z,98365.67
2022-11-04T05:40:30.233Z,98354.34
2022-11-04T05:42:59.965Z,98346.11
2022-11-04T05:45:29.301Z,98342.17
2022-11-04T05:48:05.449Z,98340.17
2022-11-04T05:50:34.549Z,98332.55
2022-11-04T05:53:02.824Z,98337.92
2022-11-04T05:55:31.155Z,98348.55
2022-11-04T05:57:59.492Z,98357.31
2022-11-04T06:00:28.460Z,98359.65
2022-11-04T06:02:59.657Z,98358.33
2022-11-04T06:05:28.565Z,98359.81
2022-11-04T06:07:57.578Z,98358.10
2022-11-04T06:10:26.085Z,98362.48
2022-11-04T06:12:54.404Z,98361.97
2022-11-04T06:15:22.869Z,98361.34
2022-11-04T06:17:51.155Z,98365.89
2022-11-04T06:20:19.485Z,98369.14
2022-11-04T06:22:47.705Z,98363.15
2022-11-04T06:25:16.692Z,98363.69
2022-11-04T06:27:44.987Z,98367.54
2022-11-04T06:30:13.310Z,98368.02
2022-11-04T06:32:41.879Z,98370.83
2022-11-04T06:35:13.860Z,98369.27
2022-11-04T06:37:42.112Z,98368.98
2022-11-04T06:40:11.188Z,98369.39
2022-11-04T06:42:39.429Z,98366.72
2022-11-04T06:45:08.642Z,98368.81
2022-11-04T06:47:37.011Z,98371.23
2022-11-04T06:50:05.480Z,98373.65
2022-11-04T06:52:36.874Z,98372.31
2022-11-04T06:55:10.481Z,98372.45
2022-11-04T06:57:38.799Z,98374.86
2022-11-04T07:00:10.817Z,98375.38
2022-11-04T07:02:39.533Z,98374.59
2022-11-04T07:05:08.879Z,98380.00
2022-11-04T07:07:37.383Z,98382.66
2022-11-04T07:10:06.384Z,98384.04
2022-11-04T07:12:34.645Z,98382.95
2022-11-04T07:15:03.313Z,98381.21
2022-11-04T07:17:31.692Z,98377.95
2022-11-04T07:20:00.509Z,98375.07
2022-11-04T07:22:28.848Z,98369.67
2022-11-04T07:24:57.219Z,98360.61
2022-11-04T07:27:25.562Z,98354.07
2022-11-04T07:29:53.769Z,98354.16
2022-11-04T07:32:22.062Z,98350.79
2022-11-04T07:34:50.334Z,98346.77
2022-11-04T07:37:18.673Z,98350.98
2022-11-04T07:39:46.964Z,98346.65
2022-11-04T07:42:15.288Z,98344.19
2022-11-04T07:44:43.529Z,98342.23
2022-11-04T07:47:11.881Z,98344.16
2022-11-04T07:49:40.240Z,98343.33
2022-11-04T07:52:08.681Z,98334.56
2022-11-04T07:54:37.301Z,98325.80
2022-11-04T07:57:05.544Z,98325.02
2022-11-04T07:59:33.855Z,98323.50
2022-11-04T08:02:02.422Z,98321.77
2022-11-04T08:04:30.871Z,98317.92
2022-11-04T08:06:59.192Z,98313.90
2022-11-04T08:09:27.653Z,98307.33
2022-11-04T08:11:55.993Z,98301.81
2022-11-04T08:14:24.349Z,98296.61
2022-11-04T08:16:52.730Z,98292.73
2022-11-04T08:19:21.009Z,98289.64
2022-11-04T08:21:49.305Z,98286.86
2022-11-04T08:24:17.580Z,98282.40
2022-11-04T08:26:46.490Z,98281.63
2022-11-04T08:29:14.972Z,98283.48
2022-11-04T08:31:43.740Z,98279.21
2022-11-04T08:34:12.003Z,98275.98
2022-11-04T08:36:41.059Z,98273.94
2022-11-04T08:39:11.325Z,98268.33
2022-11-04T08:41:43.200Z,98265.36
2022-11-04T08:44:14.908Z,98266.53
2022-11-04T08:46:45.260Z,98265.20
2022-11-04T08:49:19.481Z,98267.44
2022-11-04T08:51:56.457Z,98271.14
2022-11-04T08:54:25.970Z,98274.77
2022-11-04T08:56:54.261Z,98266.46
2022-11-04T08:59:22.561Z,98273.50
2022-11-04T09:01:50.944Z,98268.46
2022-11-04T09:04:20.117Z,98264.33
2022-11-04T09:06:50.439Z,98260.95
2022-11-04T09:09:19.732Z,98258.39
2022-11-04T09:11:49.334Z,98259.58
2022-11-04T09:14:18.241Z,98255.96
2022-11-04T09:16:46.575Z,98256.56
2022-11-04T09:19:15.381Z,98253.98
2022-11-04T09:21:43.835Z,98254.73
2022-11-04T09:24:12.457Z,98254.06
2022-11-04T09:26:40.839Z,98259.86
2022-11-04T09:29:10.349Z,98262.03
2022-11-04T09:31:39.328Z,98258.26
2022-11-04T09:34:08.026Z,98257.63
2022-11-04T09:36:36.449Z,98243.89
2022-11-04T09:39:05.552Z,98240.22
2022-11-04T09:41:58.129Z,98233.16
2022-11-04T09:44:30.440Z,98226.48
2022-11-04T09:47:02.063Z,98223.50
2022-11-04T09:49:36.248Z,98223.92
2022-11-04T09:52:14.191Z,98222.27
2022-11-04T09:54:51.157Z,98220.38
2022-11-04T09:57:20.481Z,98216.29
2022-11-04T09:59:49.212Z,98209.08
2022-11-04T10:02:28.252Z,98201.17
2022-11-04T10:05:28.513Z,98200.39
2022-11-04T10:08:02.941Z,98201.95
2022-11-04T10:10:53.517Z,98200.42
2022-11-04T10:13:34.107Z,98197.63
2022-11-04T10:16:21.518Z,98196.80
2022-11-04T10:18:58.996Z,98199.14
2022-11-04T10:22:01.067Z,98199.39
2022-11-04T10:24:43.575Z,98192.80
2022-11-04T10:27:22.782Z,98184.70
2022-11-04T10:30:00.116Z,98188.48
2022-11-04T10:32:31.817Z,98190.32
2022-11-04T10:35:31.137Z,98188.27
2022-11-04T10:38:15.654Z,98175.70
2022-11-04T10:40:48.506Z,98168.58
2022-11-04T10:43:35.958Z,98164.96
2022-11-04T10:46:30.487Z,98169.66
2022-11-04T10:49:12.708Z,98166.02
2022-11-04T10:51:40.991Z,98166.94
2022-11-04T10:54:10.360Z,98163.52
2022-11-04T10:56:43.496Z,98162.41
2022-11-04T10:59:30.701Z,98159.14
2022-11-04T11:02:01.989Z,98154.92
2022-11-04T11:04:36.747Z,98157.14
2022-11-04T11:07:06.909Z,98156.63
2022-11-04T11:09:41.282Z,98153.39
2022-11-04T11:12:44.048Z,98156.73
2022-11-04T11:15:19.512Z,98158.08
2022-11-04T11:17:48.149Z,98157.74
2022-11-04T11:20:25.101Z,98158.17
2022-11-04T11:22:55.875Z,98155.52
2022-11-04T11:25:30.161Z,98157.02
2022-11-04T11:28:04.969Z,98154.93
2022-11-04T11:30:46.577Z,98156.41
2022-11-04T11:33:20.389Z,98156.28
2022-11-04T11:35:53.612Z,98153.80
2022-11-04T11:38:24.891Z,98150.29
2022-11-04T11:41:23.850Z,98150.30
2022-11-04T11:43:56.103Z,98145.88
2022-11-04T11:46:28.268Z,98141.60
2022-11-04T11:49:02.906Z,98136.48
2022-11-04T11:51:33.200Z,98133.23
2022-11-04T11:54:19.785Z,98129.13
2022-11-04T11:57:25.211Z,98131.12
2022-11-04T12:02:59.627Z,98121.45
2022-11-04T12:11:33.928Z,98119.36
2022-11-04T12:14:10.317Z,98115.27
2022-11-04T12:17:04.878Z,98111.80
2022-11-04T12:19:46.989Z,98111.76
2022-11-04T12:22:33.401Z,98116.27
2022-11-04T12:25:08.345Z,98116.64
2022-11-04T12:27:47.648Z,98116.38
2022-11-04T12:30:28.115Z,98114.84
2022-11-04T12:32:59.505Z,98116.36
2022-11-04T12:35:43.544Z,98115.78
2022-11-04T12:38:18.336Z,98113.81
2022-11-04T12:41:18.717Z,98115.41
2022-11-04T12:43:45.162Z,98111.79
2022-11-04T12:46:27.964Z,98112.43
2022-11-04T12:49:24.053Z,98103.46
2022-11-04T12:52:07.156Z,98096.40
2022-11-04T12:54:44.796Z,98093.69
2022-11-04T12:57:24.110Z,98094.42
2022-11-04T13:00:08.104Z,98096.94
2022-11-04T13:03:02.456Z,98102.70
2022-11-04T13:05:47.396Z,98104.16
2022-11-04T13:08:28.703Z,98096.55
2022-11-04T13:11:22.734Z,98091.83
2022-11-04T13:14:01.856Z,98091.09
2022-11-04T13:16:34.351Z,98088.95
2022-11-04T13:19:04.693Z,98090.77
2022-11-04T13:21:38.406Z,98095.65
2022-11-04T13:24:21.315Z,98097.91
2022-11-04T13:26:52.246Z,98095.64
2022-11-04T13:29:21.885Z,98092.45
2022-11-04T13:32:00.894Z,98088.70
2022-11-04T13:34:47.367Z,98085.17
2022-11-04T13:37:26.417Z,98093.03
2022-11-04T13:40:24.449Z,98098.06
2022-11-04T13:43:34.358Z,98095.11
2022-11-04T13:46:03.457Z,98091.25
2022-11-04T13:48:34.781Z,98088.79
2022-11-04T13:51:08.880Z,98092.95
2022-11-04T13:53:47.536Z,98098.98
2022-11-04T13:56:39.533Z,98104.69
2022-11-04T13:59:18.604Z,98109.14
2022-11-04T14:01:47.478Z,98110.45
2022-11-04T14:04:28.117Z,98111.55
2022-11-04T14:07:04.111Z,98112.75
2022-11-04T14:09:35.641Z,98116.32
2022-11-04T14:12:18.892Z,98116.14
2022-11-04T14:14:56.081Z,98115.79
2022-11-04T14:17:33.484Z,98122.13
2022-11-04T14:20:01.841Z,98128.14
2022-11-04T14:22:44.332Z,98129.23
2022-11-04T14:25:30.627Z,98134.62
2022-11-04T14:28:11.376Z,98138.16
2022-11-04T14:31:01.489Z,98137.98
2022-11-04T14:33:53.815Z,98137.55
2022-11-04T14:36:22.228Z,98134.54
2022-11-04T14:39:12.374Z,98128.85
2022-11-04T14:41:40.715Z,98123.92
2022-11-04T14:44:23.929Z,98125.30
2022-11-04T14:46:59.560Z,98123.44
2022-11-04T14:49:43.895Z,98123.50
2022-11-04T14:52:27.101Z,98119.35
2022-11-04T14:55:30.093Z,98116.65
2022-11-04T14:58:28.287Z,98113.73
2022-11-04T15:01:01.460Z,98109.27
2022-11-04T15:06:40.857Z,98104.93
2022-11-04T15:09:27.636Z,98109.56
2022-11-04T15:12:28.546Z,98108.81
2022-11-04T15:14:58.243Z,98111.61
2022-11-04T15:17:30.275Z,98112.55
2022-11-04T15:20:01.604Z,98113.53
2022-11-04T15:22:30.605Z,98112.63
2022-11-04T15:25:06.126Z,98110.93
2022-11-04T15:27:34.839Z,98110.06
2022-11-04T15:30:05.573Z,98109.45
2022-11-04T15:32:33.825Z,98111.17
2022-11-04T15:35:02.628Z,98113.37
2022-11-04T15:37:31.437Z,98118.80
2022-11-04T15:40:00.097Z,98117.26
2022-11-04T15:42:40.923Z,98112.40
2022-11-04T15:45:27.950Z,98111.87
2022-11-04T15:48:37.991Z,98117.89
2022-11-04T15:51:25.872Z,98121.34
2022-11-04T15:54:06.377Z,98115.55
2022-11-04T15:56:41.802Z,98107.63
2022-11-04T15:59:18.978Z,98105.23
2022-11-04T16:01:49.513Z,98107.48
2022-11-04T16:04:21.412Z,98114.56
2022-11-04T16:07:05.273Z,98117.98
2022-11-04T16:09:46.822Z,98113.61
2022-11-04T16:12:27.599Z,98106.86
2022-11-04T16:14:57.880Z,98115.48
2022-11-04T16:17:28.468Z,98118.24
2022-11-04T16:20:06.266Z,98112.48
2022-11-04T16:22:40.804Z,98102.75
2022-11-04T16:25:21.159Z,98098.36
2022-11-04T16:27:50.942Z,98095.20
2022-11-04T16:30:21.922Z,98091.16
2022-11-04T16:32:55.128Z,98095.77
2022-11-04T16:35:28.434Z,98095.17
2022-11-04T16:37:56.846Z,98098.30
2022-11-04T16:40:26.069Z,98095.36
2022-11-04T16:42:54.605Z,98090.05
2022-11-04T16:45:30.165Z,98086.73
2022-11-04T16:47:58.957Z,98085.42
2022-11-04T16:50:28.012Z,98086.94
2022-11-04T16:52:56.355Z,98092.61
2022-11-04T16:55:25.687Z,98089.71
2022-11-04T16:58:04.975Z,98087.73
2022-11-04T17:00:33.998Z,98084.15
2022-11-04T17:03:13.449Z,98082.98
2022-11-04T17:05:41.770Z,98084.86
2022-11-04T17:08:12.379Z,98090.23
2022-11-04T17:10:40.812Z,98095.36
2022-11-04T17:13:09.365Z,98097.48
2022-11-04T17:15:38.509Z,98089.20
2022-11-04T17:18:06.829Z,98082.34
2022-11-04T17:20:35.221Z,98080.33
2022-11-04T17:23:03.581Z,98078.14
2022-11-04T17:25:32.310Z,98075.30
2022-11-04T17:28:00.646Z,98075.95
2022-11-04T17:30:28.899Z,98076.88
2022-11-04T17:32:57.308Z,98079.43
2022-11-04T17:35:26.164Z,98076.96
2022-11-04T17:37:55.180Z,98082.47
2022-11-04T17:40:24.290Z,98085.11
2022-11-04T17:43:12.573Z,98089.55
2022-11-04T17:45:42.749Z,98091.75
2022-11-04T17:48:11.603Z,98093.66
2022-11-04T17:50:41.549Z,98097.12
2022-11-04T17:53:10.161Z,98092.77
2022-11-04T17:55:40.735Z,98087.52
2022-11-04T17:58:09.093Z,98088.02
2022-11-04T18:00:37.828Z,98089.02
2022-11-04T18:03:06.975Z,98087.76
2022-11-04T18:05:35.411Z,98084.84
2022-11-04T18:08:03.949Z,98081.05
2022-11-04T18:10:32.279Z,98077.52
2022-11-04T18:13:00.564Z,98075.34
2022-11-04T18:15:28.957Z,98069.61
2022-11-04T18:17:57.445Z,98070.90
2022-11-04T18:20:25.745Z,98066.68
2022-11-04T18:22:54.051Z,98061.34
2022-11-04T18:25:22.377Z,98056.65
2022-11-04T18:27:50.665Z,98057.20
2022-11-04T18:30:19.072Z,98059.06
2022-11-04T18:32:47.417Z,98059.65
2022-11-04T18:35:15.687Z,98055.92
2022-11-04T18:37:47.292Z,98047.29
2022-11-04T18:40:17.036Z,98048.45
2022-11-04T18:42:45.355Z,98047.74
2022-11-04T18:45:13.688Z,98049.52
2022-11-04T18:47:42.289Z,98053.05
2022-11-04T18:50:10.618Z,98062.63
2022-11-04T18:52:38.960Z,98063.55
2022-11-04T18:55:08.305Z,98066.20
2022-11-04T18:57:36.568Z,98062.69
2022-11-04T19:00:05.736Z,98065.61
2022-11-04T19:02:34.208Z,98067.36
2022-11-04T19:05:02.639Z,98066.81
2022-11-04T19:07:30.956Z,98068.01
2022-11-04T19:09:59.402Z,98073.42
2022-11-04T19:12:46.179Z,98074.46
2022-11-04T19:15:14.712Z,98080.27
2022-11-04T19:17:43.087Z,98089.60
2022-11-04T19:20:13.050Z,98095.08
2022-11-04T19:22:41.733Z,98102.41
2022-11-04T19:25:10.910Z,98104.31
2022-11-04T19:27:39.821Z,98105.82
2022-11-04T19:30:08.740Z,98102.36
2022-11-04T19:32:37.245Z,98103.69
2022-11-04T19:35:05.929Z,98105.58
2022-11-04T19:37:34.351Z,98104.77
2022-11-04T19:40:04.949Z,98110.48
2022-11-04T19:42:52.315Z,98109.33
2022-11-04T19:45:20.753Z,98114.79
2022-11-04T19:47:49.067Z,98118.83
2022-11-04T19:50:18.423Z,98121.34
2022-11-04T19:52:46.736Z,98123.73
2022-11-04T19:55:15.584Z,98126.92
2022-11-04T19:57:43.872Z,98123.48
2022-11-04T20:00:12.572Z,98119.71
2022-11-04T20:02:40.984Z,98112.58
2022-11-04T20:05:09.635Z,98114.21
2022-11-04T20:07:39.664Z,98120.55
2022-11-04T20:10:09.458Z,98123.43
2022-11-04T20:12:57.196Z,98124.74
2022-11-04T20:15:26.497Z,98124.65
2022-11-04T20:17:54.874Z,98126.69
2022-11-04T20:20:23.263Z,98128.80
2022-11-04T20:22:51.509Z,98128.88
2022-11-04T20:25:19.944Z,98125.92
2022-11-04T20:27:48.522Z,98128.95
2022-11-04T20:30:16.794Z,98134.38
2022-11-04T20:32:45.480Z,98137.73
2022-11-04T20:35:14.538Z,98137.36
2022-11-04T20:37:43.229Z,98136.50
2022-11-04T20:40:12.267Z,98131.91
2022-11-04T20:42:47.904Z,98131.13
2022-11-04T20:45:19.292Z,98133.77
2022-11-04T20:47:48.094Z,98126.99
2022-11-04T20:50:16.480Z,98135.05
2022-11-04T20:52:44.755Z,98134.66
2022-11-04T20:55:13.148Z,98130.80
2022-11-04T20:57:41.569Z,98131.59
2022-11-04T21:00:10.457Z,98129.02
2022-11-04T21:02:38.799Z,98129.48
2022-11-04T21:05:07.490Z,98126.00
2022-11-04T21:07:37.074Z,98122.30
2022-11-04T21:10:05.749Z,98125.33
2022-11-04T21:12:34.613Z,98124.20
2022-11-04T21:15:03.498Z,98122.94
2022-11-04T21:17:36.089Z,98124.91
2022-11-04T21:20:08.584Z,98125.09
2022-11-04T21:22:36.791Z,98124.37
2022-11-04T21:25:05.397Z,98119.21
2022-11-04T21:27:33.719Z,98123.16
2022-11-04T21:30:01.997Z,98131.19
2022-11-04T21:32:31.375Z,98133.45
2022-11-04T21:34:59.700Z,98130.95
2022-11-04T21:37:28.452Z,98134.69
2022-11-04T21:39:56.832Z,98135.02
2022-11-04T21:42:25.147Z,98132.91
2022-11-04T21:44:53.423Z,98130.48
2022-11-04T21:47:21.686Z,98136.25
2022-11-04T21:49:50.739Z,98140.84
2022-11-04T21:52:18.996Z,98141.16
2022-11-04T21:54:47.588Z,98146.91
2022-11-04T21:57:15.897Z,98142.93
2022-11-04T21:59:44.175Z,98145.01
2022-11-04T22:02:12.549Z,98147.54
2022-11-04T22:04:40.939Z,98147.56
2022-11-04T22:07:09.224Z,98146.89
2022-11-04T22:09:37.553Z,98150.89
2022-11-04T22:12:05.966Z,98154.38
2022-11-04T22:14:34.225Z,98155.61
2022-11-04T22:17:02.494Z,98153.83
2022-11-04T22:19:30.967Z,98153.07
2022-11-04T22:21:59.204Z,98152.36
2022-11-04T22:24:27.437Z,98150.86
2022-11-04T22:26:55.708Z,98147.09
2022-11-04T22:29:23.953Z,98145.38
2022-11-04T22:31:52.197Z,98140.10
2022-11-04T22:34:20.528Z,98142.42
2022-11-04T22:36:48.809Z,98152.48
2022-11-04T22:39:17.278Z,98162.83
2022-11-04T22:41:46.580Z,98158.73
2022-11-04T22:44:15.248Z,98157.11
2022-11-04T22:46:43.735Z,98165.89
2022-11-04T22:49:13.158Z,98177.45
2022-11-04T22:51:41.482Z,98181.91
2022-11-04T22:54:10.429Z,98184.39
2022-11-04T22:56:38.741Z,98184.22
2022-11-04T22:59:07.923Z,98187.04
2022-11-04T23:01:36.862Z,98191.05
2022-11-04T23:04:05.730Z,98188.99
2022-11-04T23:06:34.012Z,98195.35
2022-11-04T23:09:02.353Z,98194.95
2022-11-04T23:11:50.771Z,98188.90
2022-11-04T23:14:40.202Z,98189.17
2022-11-04T23:17:34.816Z,98196.08
2022-11-04T23:20:07.220Z,98196.35
2022-11-04T23:22:54.296Z,98193.62
2022-11-04T23:25:23.319Z,98189.51
2022-11-04T23:28:12.852Z,98182.05
2022-11-04T23:30:43.552Z,98177.16
2022-11-04T23:33:14.770Z,98174.94
2022-11-04T23:36:05.191Z,98179.20
2022-11-04T23:38:35.566Z,98180.02
2022-11-04T23:41:26.015Z,98183.36
2022-11-04T23:43:54.292Z,98187.21
2022-11-04T23:46:43.380Z,98187.33
2022-11-04T23:49:50.685Z,98189.78
2022-11-04T23:52:37.736Z,98197.08
2022-11-04T23:55:27.777Z,98196.33
2022-11-04T23:58:14.445Z,98199.23
